createdAt,value
2017-12-28T00:00:40.182Z,94.93
2017-12-28T00:01:39.937Z,94.46
2017-12-28T00:02:39.950Z,93.99
2017-12-28T00:03:40.199Z,94.56
2017-12-28T00:04:39.988Z,93.89
2017-12-28T00:05:40.241Z,94.56
2017-12-28T00:06:40.256Z,94.56
2017-12-28T00:07:40.266Z,94.56
2017-12-28T00:08:40.027Z,93.89
2017-12-28T00:09:40.088Z,93.89
2017-12-28T00:10:40.063Z,93.8
2017-12-28T00:11:40.315Z,94.18
2017-12-28T00:12:40.093Z,93.61
2017-12-28T00:13:40.337Z,93.51
2017-12-28T00:14:40.419Z,93.04
2017-12-28T00:15:40.111Z,93.7
2017-12-28T00:16:40.374Z,93.42
2017-12-28T00:17:40.404Z,93.42
2017-12-28T00:18:40.387Z,93.23
2017-12-28T00:19:40.149Z,93.42
2017-12-28T00:20:40.174Z,93.32
2017-12-28T00:21:40.432Z,93.23
2017-12-28T00:22:40.209Z,92.94
2017-12-28T00:23:40.460Z,93.04
2017-12-28T00:24:40.463Z,93.04
2017-12-28T00:25:40.490Z,92.85
2017-12-28T00:26:40.247Z,92.9
2017-12-28T00:27:40.516Z,92.71
2017-12-28T00:28:40.528Z,92.43
2017-12-28T00:29:40.690Z,92.66
2017-12-28T00:30:40.295Z,92.66
2017-12-28T00:31:40.550Z,92.52
2017-12-28T00:32:40.559Z,92.61
2017-12-28T00:33:40.574Z,92.52
2017-12-28T00:34:40.602Z,92.05
2017-12-28T00:35:40.357Z,92.57
2017-12-28T00:36:40.614Z,92.24
2017-12-28T00:37:40.621Z,91.91
2017-12-28T00:38:40.632Z,92.19
2017-12-28T00:39:40.649Z,92.47
2017-12-28T00:40:40.411Z,92.33
2017-12-28T00:41:40.420Z,92.61
2017-12-28T00:42:40.444Z,92.57
2017-12-28T00:43:40.699Z,92.57
2017-12-28T00:44:40.758Z,92.29
2017-12-28T00:45:40.721Z,92.8
2017-12-28T00:46:40.483Z,92.8
2017-12-28T00:47:40.513Z,92.71
2017-12-28T00:48:40.509Z,93.13
2017-12-28T00:49:40.618Z,93.13
2017-12-28T00:50:40.785Z,92.85
2017-12-28T00:51:40.797Z,92.66
2017-12-28T00:52:40.810Z,93.04
2017-12-28T00:53:40.822Z,92.76
2017-12-28T00:54:40.833Z,92.94
2017-12-28T00:55:40.848Z,92.76
2017-12-28T00:56:40.856Z,93.04
2017-12-28T00:57:40.869Z,93.61
2017-12-28T00:58:40.884Z,93.23
2017-12-28T00:59:40.948Z,93.42
2017-12-28T01:00:40.656Z,93.32
2017-12-28T01:01:40.921Z,93.42
2017-12-28T01:02:40.935Z,93.42
2017-12-28T01:03:40.949Z,93.32
2017-12-28T01:04:40.958Z,93.32
2017-12-28T01:05:40.972Z,93.42
2017-12-28T01:06:40.985Z,93.61
2017-12-28T01:07:40.996Z,92.85
2017-12-28T01:08:40.757Z,93.42
2017-12-28T01:09:41.022Z,93.51
2017-12-28T01:10:40.783Z,93.23
2017-12-28T01:11:40.793Z,93.51
2017-12-28T01:12:41.057Z,92.76
2017-12-28T01:13:40.820Z,93.51
2017-12-28T01:14:40.829Z,93.51
2017-12-28T01:15:41.145Z,93.46
2017-12-28T01:16:41.109Z,92.85
2017-12-28T01:17:41.121Z,93.13
2017-12-28T01:18:41.133Z,93.23
2017-12-28T01:19:41.142Z,93.42
2017-12-28T01:20:41.158Z,93.32
2017-12-28T01:21:41.171Z,93.32
2017-12-28T01:22:41.181Z,93.23
2017-12-28T01:23:41.197Z,93.32
2017-12-28T01:24:41.301Z,93.13
2017-12-28T01:25:41.221Z,93.42
2017-12-28T01:26:41.230Z,93.51
2017-12-28T01:27:41.242Z,93.23
2017-12-28T01:28:41.256Z,93.23
2017-12-28T01:29:41.271Z,93.46
2017-12-28T01:30:41.280Z,93.65
2017-12-28T01:31:41.353Z,93.27
2017-12-28T01:32:41.311Z,93.18
2017-12-28T01:33:41.065Z,92.8
2017-12-28T01:34:41.081Z,92.71
2017-12-28T01:35:41.345Z,93.18
2017-12-28T01:36:41.356Z,92.71
2017-12-28T01:37:41.133Z,92.8
2017-12-28T01:38:41.131Z,92.33
2017-12-28T01:39:41.399Z,92.71
2017-12-28T01:40:41.406Z,92.52
2017-12-28T01:41:41.168Z,92.33
2017-12-28T01:42:41.433Z,92.33
2017-12-28T01:43:41.194Z,92.33
2017-12-28T01:44:41.212Z,92.71
2017-12-28T01:45:41.471Z,92.8
2017-12-28T01:46:41.537Z,93.08
2017-12-28T01:47:41.245Z,92.9
2017-12-28T01:48:41.259Z,92.61
2017-12-28T01:49:41.270Z,92.61
2017-12-28T01:50:41.284Z,93.18
2017-12-28T01:51:41.297Z,92.9
2017-12-28T01:52:41.559Z,92.9
2017-12-28T01:53:41.323Z,92.71
2017-12-28T01:54:41.587Z,92.24
2017-12-28T01:55:41.346Z,92.52
2017-12-28T01:56:41.609Z,92.52
2017-12-28T01:57:41.374Z,92.61
2017-12-28T01:58:41.638Z,92.33
2017-12-28T01:59:41.649Z,92.24
2017-12-28T02:00:41.662Z,91.86
2017-12-28T02:01:41.473Z,92.52
2017-12-28T02:02:41.434Z,92.43
2017-12-28T02:03:41.449Z,91.86
2017-12-28T02:04:41.712Z,92.52
2017-12-28T02:05:41.473Z,92.52
2017-12-28T02:06:41.737Z,92.52
2017-12-28T02:07:41.750Z,92.33
2017-12-28T02:08:41.769Z,92.14
2017-12-28T02:09:41.785Z,92.52
2017-12-28T02:10:41.791Z,92.14
2017-12-28T02:11:41.551Z,92.33
2017-12-28T02:12:41.817Z,92.33
2017-12-28T02:13:41.574Z,92.33
2017-12-28T02:14:41.841Z,92.24
2017-12-28T02:15:41.603Z,92.52
2017-12-28T02:16:41.870Z,92.05
2017-12-28T02:17:41.877Z,91.76
2017-12-28T02:18:41.891Z,92.24
2017-12-28T02:19:41.651Z,92.43
2017-12-28T02:20:41.938Z,92.05
2017-12-28T02:21:41.983Z,92.24
2017-12-28T02:22:41.692Z,91.95
2017-12-28T02:23:41.705Z,91.95
2017-12-28T02:24:41.967Z,92.14
2017-12-28T02:25:41.980Z,91.76
2017-12-28T02:26:42.004Z,92.43
2017-12-28T02:27:42.009Z,92.43
2017-12-28T02:28:42.018Z,92.43
2017-12-28T02:29:42.034Z,92.14
2017-12-28T02:30:42.047Z,92.24
2017-12-28T02:31:41.807Z,92.43
2017-12-28T02:32:41.825Z,91.76
2017-12-28T02:33:41.832Z,91.76
2017-12-28T02:34:42.098Z,91.71
2017-12-28T02:35:41.865Z,91.67
2017-12-28T02:36:42.180Z,91.48
2017-12-28T02:37:42.137Z,91.1
2017-12-28T02:38:41.897Z,91.29
2017-12-28T02:39:42.163Z,91.48
2017-12-28T02:40:42.175Z,91.29
2017-12-28T02:41:41.938Z,91.1
2017-12-28T02:42:42.204Z,91.95
2017-12-28T02:43:42.213Z,92.05
2017-12-28T02:44:41.975Z,91.1
2017-12-28T02:45:41.989Z,91.76
2017-12-28T02:46:42.256Z,91.29
2017-12-28T02:47:42.273Z,91.67
2017-12-28T02:48:42.277Z,91.1
2017-12-28T02:49:42.040Z,91.38
2017-12-28T02:50:42.053Z,91.57
2017-12-28T02:51:42.370Z,91.48
2017-12-28T02:52:42.329Z,91.1
2017-12-28T02:53:42.344Z,91.38
2017-12-28T02:54:42.106Z,91.38
2017-12-28T02:55:42.373Z,91.48
2017-12-28T02:56:42.395Z,91.19
2017-12-28T02:57:42.145Z,91.29
2017-12-28T02:58:42.411Z,91.29
2017-12-28T02:59:42.173Z,91.29
2017-12-28T03:00:42.437Z,91.38
2017-12-28T03:01:42.204Z,91.95
2017-12-28T03:02:42.466Z,92.05
2017-12-28T03:03:42.489Z,92.14
2017-12-28T03:04:42.259Z,91.95
2017-12-28T03:05:42.501Z,91.29
2017-12-28T03:06:42.514Z,91.67
2017-12-28T03:07:42.580Z,92.05
2017-12-28T03:08:42.540Z,91.86
2017-12-28T03:09:42.303Z,91.1
2017-12-28T03:10:42.315Z,91.38
2017-12-28T03:11:42.578Z,91.48
2017-12-28T03:12:42.342Z,91.67
2017-12-28T03:13:42.607Z,91.38
2017-12-28T03:14:42.366Z,91.29
2017-12-28T03:15:42.381Z,91.48
2017-12-28T03:16:42.651Z,91.48
2017-12-28T03:17:42.406Z,91.1
2017-12-28T03:18:42.422Z,91.38
2017-12-28T03:19:42.433Z,91.38
2017-12-28T03:20:42.447Z,91.1
2017-12-28T03:21:42.712Z,91.19
2017-12-28T03:22:42.773Z,91.29
2017-12-28T03:23:42.736Z,90.81
2017-12-28T03:24:42.499Z,91.19
2017-12-28T03:25:42.766Z,91.1
2017-12-28T03:26:42.775Z,91.29
2017-12-28T03:27:42.537Z,91.48
2017-12-28T03:28:42.556Z,91.67
2017-12-28T03:29:42.565Z,91.1
2017-12-28T03:30:42.577Z,91.76
2017-12-28T03:31:42.841Z,91.76
2017-12-28T03:32:42.604Z,91.67
2017-12-28T03:33:42.617Z,91.48
2017-12-28T03:34:42.630Z,91.29
2017-12-28T03:35:42.643Z,91.48
2017-12-28T03:36:42.906Z,91.38
2017-12-28T03:37:42.971Z,91.29
2017-12-28T03:38:42.932Z,91.1
2017-12-28T03:39:42.692Z,91.29
2017-12-28T03:40:42.704Z,91.1
2017-12-28T03:41:42.720Z,91.19
2017-12-28T03:42:42.831Z,91.19
2017-12-28T03:43:42.996Z,91
2017-12-28T03:44:43.010Z,91.48
2017-12-28T03:45:42.770Z,90.91
2017-12-28T03:46:43.079Z,91.19
2017-12-28T03:47:43.048Z,91.29
2017-12-28T03:48:43.059Z,90.81
2017-12-28T03:49:42.821Z,91.1
2017-12-28T03:50:43.084Z,91.1
2017-12-28T03:51:42.844Z,91.1
2017-12-28T03:52:43.161Z,91.1
2017-12-28T03:53:42.870Z,90.53
2017-12-28T03:54:42.903Z,90.44
2017-12-28T03:55:43.148Z,91.19
2017-12-28T03:56:43.164Z,90.91
2017-12-28T03:57:43.175Z,91.1
2017-12-28T03:58:43.184Z,90.63
2017-12-28T03:59:42.952Z,90.72
2017-12-28T04:00:42.959Z,90.72
2017-12-28T04:01:43.232Z,90.72
2017-12-28T04:02:43.005Z,90.72
2017-12-28T04:03:42.998Z,90.44
2017-12-28T04:04:43.268Z,90.34
2017-12-28T04:05:43.274Z,90.44
2017-12-28T04:06:43.035Z,90.34
2017-12-28T04:07:43.357Z,90.34
2017-12-28T04:08:43.311Z,90.34
2017-12-28T04:09:43.076Z,89.77
2017-12-28T04:10:43.341Z,90.15
2017-12-28T04:11:43.356Z,90.06
2017-12-28T04:12:43.112Z,90.25
2017-12-28T04:13:43.378Z,90.44
2017-12-28T04:14:43.390Z,89.87
2017-12-28T04:15:43.152Z,90.06
2017-12-28T04:16:43.164Z,90.06
2017-12-28T04:17:43.426Z,89.96
2017-12-28T04:18:43.443Z,89.77
2017-12-28T04:19:43.202Z,90.15
2017-12-28T04:20:43.215Z,90.15
2017-12-28T04:21:43.228Z,89.39
2017-12-28T04:22:43.392Z,89.87
2017-12-28T04:23:43.508Z,89.49
2017-12-28T04:24:43.265Z,89.49
2017-12-28T04:25:43.281Z,89.3
2017-12-28T04:26:43.551Z,89.49
2017-12-28T04:27:43.305Z,89.68
2017-12-28T04:28:43.566Z,89.2
2017-12-28T04:29:43.338Z,89.39
2017-12-28T04:30:43.341Z,89.11
2017-12-28T04:31:43.609Z,89.58
2017-12-28T04:32:43.618Z,89.49
2017-12-28T04:33:43.636Z,89.58
2017-12-28T04:34:43.397Z,89.3
2017-12-28T04:35:43.660Z,89.49
2017-12-28T04:36:43.673Z,89.2
2017-12-28T04:37:43.739Z,89.58
2017-12-28T04:38:43.698Z,89.49
2017-12-28T04:39:43.712Z,89.39
2017-12-28T04:40:43.472Z,89.96
2017-12-28T04:41:43.741Z,90.15
2017-12-28T04:42:43.751Z,89.68
2017-12-28T04:43:43.763Z,89.3
2017-12-28T04:44:43.777Z,89.96
2017-12-28T04:45:43.802Z,89.87
2017-12-28T04:46:43.798Z,89.77
2017-12-28T04:47:43.815Z,90.34
2017-12-28T04:48:43.824Z,90.34
2017-12-28T04:49:43.588Z,90.25
2017-12-28T04:50:43.853Z,89.58
2017-12-28T04:51:43.614Z,90.06
2017-12-28T04:52:43.932Z,90.34
2017-12-28T04:53:43.640Z,90.06
2017-12-28T04:54:43.653Z,90.06
2017-12-28T04:55:43.919Z,90.34
2017-12-28T04:56:43.933Z,90.15
2017-12-28T04:57:43.945Z,90.34
2017-12-28T04:58:43.959Z,90.34
2017-12-28T04:59:43.970Z,90.53
2017-12-28T05:00:43.983Z,90.25
2017-12-28T05:01:43.996Z,91
2017-12-28T05:02:44.008Z,91.29
2017-12-28T05:03:44.023Z,91.29
2017-12-28T05:04:43.783Z,91.19
2017-12-28T05:05:43.796Z,91.1
2017-12-28T05:06:44.060Z,90.44
2017-12-28T05:07:44.224Z,90.81
2017-12-28T05:08:44.091Z,90.44
2017-12-28T05:09:44.098Z,90.91
2017-12-28T05:10:44.110Z,91.19
2017-12-28T05:11:43.874Z,91.1
2017-12-28T05:12:43.889Z,91
2017-12-28T05:13:43.899Z,91.29
2017-12-28T05:14:44.161Z,90.81
2017-12-28T05:15:44.177Z,91.48
2017-12-28T05:16:43.935Z,91.48
2017-12-28T05:17:43.948Z,91.67
2017-12-28T05:18:43.963Z,91.57
2017-12-28T05:19:43.974Z,91.95
2017-12-28T05:20:44.243Z,91.57
2017-12-28T05:21:44.283Z,91.76
2017-12-28T05:22:44.322Z,92.05
2017-12-28T05:23:44.280Z,91.76
2017-12-28T05:24:44.292Z,91.95
2017-12-28T05:25:44.051Z,91.95
2017-12-28T05:26:44.064Z,91.95
2017-12-28T05:27:44.086Z,92.14
2017-12-28T05:28:44.344Z,91.76
2017-12-28T05:29:44.378Z,91.67
2017-12-28T05:30:44.373Z,92.05
2017-12-28T05:31:44.378Z,91.86
2017-12-28T05:32:44.392Z,91.67
2017-12-28T05:33:44.405Z,91.57
2017-12-28T05:34:44.166Z,91.48
2017-12-28T05:35:44.178Z,91.86
2017-12-28T05:36:44.442Z,91.76
2017-12-28T05:37:44.506Z,91.67
2017-12-28T05:38:44.222Z,91.38
2017-12-28T05:39:44.484Z,91.76
2017-12-28T05:40:44.242Z,91.95
2017-12-28T05:41:44.261Z,91.76
2017-12-28T05:42:44.269Z,92.33
2017-12-28T05:43:44.284Z,92.33
2017-12-28T05:44:44.547Z,91.76
2017-12-28T05:45:44.557Z,92.14
2017-12-28T05:46:44.321Z,92.14
2017-12-28T05:47:44.587Z,91.86
2017-12-28T05:48:44.347Z,92.33
2017-12-28T05:49:44.358Z,91.95
2017-12-28T05:50:44.625Z,92.47
2017-12-28T05:51:44.637Z,92.57
2017-12-28T05:52:44.700Z,92.52
2017-12-28T05:53:44.411Z,92.52
2017-12-28T05:54:44.677Z,92.38
2017-12-28T05:55:44.696Z,92.76
2017-12-28T05:56:44.699Z,92.57
2017-12-28T05:57:44.461Z,92.66
2017-12-28T05:58:44.475Z,92.47
2017-12-28T05:59:44.485Z,92.33
2017-12-28T06:00:44.497Z,91.95
2017-12-28T06:01:44.765Z,92.43
2017-12-28T06:02:44.524Z,92.33
2017-12-28T06:03:44.797Z,92.14
2017-12-28T06:04:44.803Z,92.14
2017-12-28T06:05:44.565Z,92.43
2017-12-28T06:06:44.576Z,91.81
2017-12-28T06:07:44.891Z,91.86
2017-12-28T06:08:44.852Z,92.85
2017-12-28T06:09:44.867Z,92.29
2017-12-28T06:10:44.627Z,92.66
2017-12-28T06:11:44.638Z,92.57
2017-12-28T06:12:44.929Z,92.47
2017-12-28T06:13:44.665Z,92.38
2017-12-28T06:14:44.676Z,92.85
2017-12-28T06:15:44.688Z,93.04
2017-12-28T06:16:44.954Z,93.04
2017-12-28T06:17:44.965Z,92.66
2017-12-28T06:18:44.977Z,93.04
2017-12-28T06:19:44.995Z,92.76
2017-12-28T06:20:45.004Z,92.76
2017-12-28T06:21:45.016Z,92.94
2017-12-28T06:22:44.827Z,92.76
2017-12-28T06:23:45.039Z,92.85
2017-12-28T06:24:45.053Z,92.85
2017-12-28T06:25:45.065Z,92.85
2017-12-28T06:26:44.824Z,93.42
2017-12-28T06:27:45.090Z,93.42
2017-12-28T06:28:45.106Z,93.32
2017-12-28T06:29:44.864Z,93.04
2017-12-28T06:30:44.886Z,92.94
2017-12-28T06:31:45.141Z,92.99
2017-12-28T06:32:45.153Z,92.8
2017-12-28T06:33:44.913Z,92.9
2017-12-28T06:34:44.927Z,92.9
2017-12-28T06:35:45.191Z,92.85
2017-12-28T06:36:45.205Z,92.19
2017-12-28T06:37:45.267Z,92.94
2017-12-28T06:38:45.244Z,92.76
2017-12-28T06:39:44.990Z,92.94
2017-12-28T06:40:45.012Z,92.85
2017-12-28T06:41:45.266Z,92.66
2017-12-28T06:42:45.030Z,92.29
2017-12-28T06:43:45.292Z,92.66
2017-12-28T06:44:45.054Z,92.29
2017-12-28T06:45:45.323Z,92.85
2017-12-28T06:46:45.331Z,92.76
2017-12-28T06:47:45.341Z,92.85
2017-12-28T06:48:45.353Z,92.76
2017-12-28T06:49:45.115Z,93.42
2017-12-28T06:50:45.383Z,93.61
2017-12-28T06:51:45.140Z,93.42
2017-12-28T06:52:45.467Z,92.76
2017-12-28T06:53:45.417Z,93.04
2017-12-28T06:54:45.180Z,93.18
2017-12-28T06:55:45.191Z,92.8
2017-12-28T06:56:45.460Z,92.99
2017-12-28T06:57:45.472Z,92.61
2017-12-28T06:58:45.230Z,92.52
2017-12-28T06:59:45.494Z,92.71
2017-12-28T07:00:45.254Z,92.43
2017-12-28T07:01:45.269Z,92.33
2017-12-28T07:02:45.545Z,92.52
2017-12-28T07:03:45.544Z,92.52
2017-12-28T07:04:45.566Z,92.66
2017-12-28T07:05:45.572Z,92.43
2017-12-28T07:06:45.330Z,92.43
2017-12-28T07:07:45.677Z,92.94
2017-12-28T07:08:45.609Z,92.85
2017-12-28T07:09:45.626Z,92.47
2017-12-28T07:10:45.638Z,92.94
2017-12-28T07:11:45.646Z,92.76
2017-12-28T07:12:45.405Z,93.23
2017-12-28T07:13:45.418Z,93.32
2017-12-28T07:14:45.430Z,93.42
2017-12-28T07:15:45.442Z,93.23
2017-12-28T07:16:45.716Z,93.04
2017-12-28T07:17:45.717Z,93.51
2017-12-28T07:18:45.734Z,93.42
2017-12-28T07:19:45.747Z,93.23
2017-12-28T07:20:45.757Z,93.32
2017-12-28T07:21:45.768Z,93.13
2017-12-28T07:22:45.595Z,93.51
2017-12-28T07:23:45.790Z,93.7
2017-12-28T07:24:45.814Z,93.8
2017-12-28T07:25:45.817Z,93.51
2017-12-28T07:26:45.835Z,93.51
2017-12-28T07:27:45.592Z,93.13
2017-12-28T07:28:45.869Z,93.04
2017-12-28T07:29:45.866Z,93.32
2017-12-28T07:30:45.883Z,93.04
2017-12-28T07:31:45.894Z,93.61
2017-12-28T07:32:45.654Z,93.23
2017-12-28T07:33:45.915Z,93.51
2017-12-28T07:34:45.931Z,93.04
2017-12-28T07:35:45.689Z,93.42
2017-12-28T07:36:45.701Z,93.23
2017-12-28T07:37:46.115Z,93.23
2017-12-28T07:38:45.725Z,93.42
2017-12-28T07:39:45.737Z,93.13
2017-12-28T07:40:46.006Z,93.7
2017-12-28T07:41:46.016Z,93.04
2017-12-28T07:42:45.777Z,93.89
2017-12-28T07:43:45.790Z,93.7
2017-12-28T07:44:45.800Z,93.8
2017-12-28T07:45:45.814Z,93.8
2017-12-28T07:46:46.074Z,93.61
2017-12-28T07:47:46.093Z,93.32
2017-12-28T07:48:46.103Z,93.32
2017-12-28T07:49:45.863Z,93.7
2017-12-28T07:50:46.130Z,93.61
2017-12-28T07:51:45.892Z,93.23
2017-12-28T07:52:45.998Z,93.04
2017-12-28T07:53:45.913Z,93.51
2017-12-28T07:54:45.931Z,93.42
2017-12-28T07:55:45.937Z,93.23
2017-12-28T07:56:45.958Z,93.42
2017-12-28T07:57:46.216Z,93.51
2017-12-28T07:58:45.976Z,93.42
2017-12-28T07:59:46.244Z,93.42
2017-12-28T08:00:45.997Z,93.32
2017-12-28T08:01:46.011Z,93.23
2017-12-28T08:02:46.323Z,93.13
2017-12-28T08:03:46.286Z,93.23
2017-12-28T08:04:46.300Z,93.32
2017-12-28T08:05:46.315Z,93.51
2017-12-28T08:06:46.327Z,93.51
2017-12-28T08:07:46.739Z,93.37
2017-12-28T08:08:46.098Z,93.18
2017-12-28T08:09:46.361Z,92.71
2017-12-28T08:10:46.375Z,92.9
2017-12-28T08:11:46.136Z,92.9
2017-12-28T08:12:46.415Z,92.9
2017-12-28T08:13:46.160Z,92.52
2017-12-28T08:14:46.422Z,92.43
2017-12-28T08:15:46.437Z,92.38
2017-12-28T08:16:46.450Z,92.19
2017-12-28T08:17:46.463Z,92.57
2017-12-28T08:18:46.230Z,92.71
2017-12-28T08:19:46.488Z,92.8
2017-12-28T08:20:46.245Z,92.8
2017-12-28T08:21:46.511Z,92.52
2017-12-28T08:22:46.315Z,92.9
2017-12-28T08:23:46.279Z,92.52
2017-12-28T08:24:46.541Z,92.43
2017-12-28T08:25:46.553Z,92.52
2017-12-28T08:26:46.567Z,92.61
2017-12-28T08:27:46.582Z,92.43
2017-12-28T08:28:46.596Z,92.61
2017-12-28T08:29:46.357Z,92.99
2017-12-28T08:30:46.368Z,92.43
2017-12-28T08:31:46.381Z,92.66
2017-12-28T08:32:46.394Z,92.61
2017-12-28T08:33:46.411Z,92.9
2017-12-28T08:34:46.419Z,92.85
2017-12-28T08:35:46.431Z,93.08
2017-12-28T08:36:46.694Z,92.85
2017-12-28T08:37:46.757Z,93.04
2017-12-28T08:38:46.722Z,93.51
2017-12-28T08:39:46.735Z,93.32
2017-12-28T08:40:46.493Z,93.32
2017-12-28T08:41:46.505Z,93.42
2017-12-28T08:42:46.517Z,93.23
2017-12-28T08:43:46.783Z,93.7
2017-12-28T08:44:46.801Z,93.32
2017-12-28T08:45:46.555Z,93.51
2017-12-28T08:46:46.820Z,92.76
2017-12-28T08:47:46.833Z,92.76
2017-12-28T08:48:46.843Z,92.76
2017-12-28T08:49:46.867Z,92.19
2017-12-28T08:50:46.867Z,92.76
2017-12-28T08:51:46.886Z,92.38
2017-12-28T08:52:46.943Z,92.66
2017-12-28T08:53:46.906Z,92.66
2017-12-28T08:54:46.920Z,92.94
2017-12-28T08:55:46.677Z,92.76
2017-12-28T08:56:46.942Z,93.13
2017-12-28T08:57:46.707Z,93.51
2017-12-28T08:58:46.715Z,93.23
2017-12-28T08:59:46.977Z,92.76
2017-12-28T09:00:47.000Z,93.04
2017-12-28T09:01:47.001Z,92.76
2017-12-28T09:02:47.015Z,92.85
2017-12-28T09:03:46.775Z,93.32
2017-12-28T09:04:47.040Z,93.51
2017-12-28T09:05:47.059Z,93.51
2017-12-28T09:06:46.813Z,93.42
2017-12-28T09:07:46.876Z,93.32
2017-12-28T09:08:47.097Z,93.42
2017-12-28T09:09:47.103Z,93.42
2017-12-28T09:10:47.113Z,93.51
2017-12-28T09:11:47.135Z,93.32
2017-12-28T09:12:47.137Z,93.51
2017-12-28T09:13:46.901Z,93.51
2017-12-28T09:14:46.914Z,93.51
2017-12-28T09:15:47.177Z,93.04
2017-12-28T09:16:47.188Z,92.76
2017-12-28T09:17:47.201Z,93.42
2017-12-28T09:18:46.961Z,93.51
2017-12-28T09:19:47.223Z,94.08
2017-12-28T09:20:47.236Z,94.08
2017-12-28T09:21:47.247Z,94.08
2017-12-28T09:22:47.314Z,93.89
2017-12-28T09:23:47.027Z,94.18
2017-12-28T09:24:47.034Z,94.08
2017-12-28T09:25:47.300Z,93.89
2017-12-28T09:26:47.064Z,94.46
2017-12-28T09:27:47.074Z,93.99
2017-12-28T09:28:47.337Z,93.99
2017-12-28T09:29:47.098Z,93.99
2017-12-28T09:30:47.362Z,94.65
2017-12-28T09:31:47.371Z,93.89
2017-12-28T09:32:47.400Z,94.74
2017-12-28T09:33:47.144Z,94.74
2017-12-28T09:34:47.157Z,93.99
2017-12-28T09:35:47.167Z,93.89
2017-12-28T09:36:47.431Z,93.7
2017-12-28T09:37:47.191Z,94.37
2017-12-28T09:38:47.205Z,94.56
2017-12-28T09:39:47.466Z,93.89
2017-12-28T09:40:47.228Z,94.56
2017-12-28T09:41:47.491Z,94.08
2017-12-28T09:42:47.508Z,94.46
2017-12-28T09:43:47.266Z,94.74
2017-12-28T09:44:47.531Z,94.37
2017-12-28T09:45:47.293Z,93.8
2017-12-28T09:46:47.555Z,93.89
2017-12-28T09:47:47.317Z,94.74
2017-12-28T09:48:47.328Z,94.27
2017-12-28T09:49:47.593Z,94.56
2017-12-28T09:50:47.353Z,94.46
2017-12-28T09:51:47.365Z,94.37
2017-12-28T09:52:47.631Z,94.84
2017-12-28T09:53:47.389Z,94.27
2017-12-28T09:54:47.400Z,94.46
2017-12-28T09:55:47.669Z,94.56
2017-12-28T09:56:47.426Z,94.27
2017-12-28T09:57:47.692Z,94.37
2017-12-28T09:58:47.465Z,94.46
2017-12-28T09:59:47.710Z,94.65
2017-12-28T10:00:47.726Z,94.84
2017-12-28T10:01:47.737Z,94.84
2017-12-28T10:02:47.754Z,94.84
2017-12-28T10:03:47.511Z,94.74
2017-12-28T10:04:47.775Z,94.84
2017-12-28T10:05:47.788Z,94.65
2017-12-28T10:06:47.802Z,94.65
2017-12-28T10:07:47.808Z,95.12
2017-12-28T10:08:47.567Z,94.46
2017-12-28T10:09:47.831Z,94.93
2017-12-28T10:10:47.893Z,94.84
2017-12-28T10:11:47.855Z,94.56
2017-12-28T10:12:47.868Z,94.65
2017-12-28T10:13:47.879Z,94.93
2017-12-28T10:14:47.902Z,94.84
2017-12-28T10:15:47.916Z,95.03
2017-12-28T10:16:47.664Z,95.31
2017-12-28T10:17:47.930Z,94.65
2017-12-28T10:18:47.950Z,94.84
2017-12-28T10:19:47.701Z,95.4
2017-12-28T10:20:47.723Z,95.21
2017-12-28T10:21:47.983Z,95.4
2017-12-28T10:22:47.990Z,95.31
2017-12-28T10:23:48.007Z,95.31
2017-12-28T10:24:48.020Z,95.03
2017-12-28T10:25:48.031Z,95.03
2017-12-28T10:26:48.042Z,95.4
2017-12-28T10:27:47.804Z,95.21
2017-12-28T10:28:47.818Z,94.93
2017-12-28T10:29:47.827Z,95.4
2017-12-28T10:30:47.839Z,95.69
2017-12-28T10:31:48.105Z,95.5
2017-12-28T10:32:48.117Z,95.78
2017-12-28T10:33:48.128Z,96.07
2017-12-28T10:34:48.142Z,95.21
2017-12-28T10:35:48.156Z,94.84
2017-12-28T10:36:47.915Z,94.65
2017-12-28T10:37:48.181Z,94.84
2017-12-28T10:38:48.190Z,94.08
2017-12-28T10:39:48.202Z,94.56
2017-12-28T10:40:48.222Z,95.21
2017-12-28T10:41:47.977Z,95.21
2017-12-28T10:42:47.991Z,95.5
2017-12-28T10:43:48.254Z,95.59
2017-12-28T10:44:48.268Z,95.31
2017-12-28T10:45:48.285Z,95.21
2017-12-28T10:46:48.294Z,95.4
2017-12-28T10:47:48.055Z,95.88
2017-12-28T10:48:48.081Z,95.21
2017-12-28T10:49:48.083Z,95.59
2017-12-28T10:50:48.344Z,95.78
2017-12-28T10:51:48.411Z,95.59
2017-12-28T10:52:48.369Z,95.59
2017-12-28T10:53:48.383Z,96.07
2017-12-28T10:54:48.142Z,95.4
2017-12-28T10:55:48.153Z,95.88
2017-12-28T10:56:48.419Z,95.88
2017-12-28T10:57:48.431Z,95.4
2017-12-28T10:58:48.190Z,95.12
2017-12-28T10:59:48.203Z,94.84
2017-12-28T11:00:48.470Z,95.21
2017-12-28T11:01:48.480Z,95.31
2017-12-28T11:02:48.494Z,95.5
2017-12-28T11:03:48.506Z,95.5
2017-12-28T11:04:48.265Z,95.31
2017-12-28T11:05:48.279Z,95.4
2017-12-28T11:06:48.291Z,95.31
2017-12-28T11:07:48.554Z,95.21
2017-12-28T11:08:48.567Z,96.07
2017-12-28T11:09:48.580Z,95.78
2017-12-28T11:10:48.593Z,95.5
2017-12-28T11:11:48.354Z,95.5
2017-12-28T11:12:48.365Z,95.59
2017-12-28T11:13:48.379Z,95.5
2017-12-28T11:14:48.650Z,95.4
2017-12-28T11:15:48.653Z,95.21
2017-12-28T11:16:48.413Z,95.5
2017-12-28T11:17:48.677Z,94.74
2017-12-28T11:18:48.696Z,94.93
2017-12-28T11:19:48.705Z,95.21
2017-12-28T11:20:48.719Z,95.21
2017-12-28T11:21:48.474Z,95.5
2017-12-28T11:22:48.737Z,95.4
2017-12-28T11:23:48.799Z,94.93
2017-12-28T11:24:48.513Z,95.5
2017-12-28T11:25:48.779Z,95.4
2017-12-28T11:26:48.791Z,95.5
2017-12-28T11:27:48.802Z,95.5
2017-12-28T11:28:48.917Z,95.03
2017-12-28T11:29:48.828Z,95.5
2017-12-28T11:30:48.840Z,95.5
2017-12-28T11:31:48.604Z,95.5
2017-12-28T11:32:48.861Z,95.5
2017-12-28T11:33:48.873Z,94.84
2017-12-28T11:34:48.638Z,95.12
2017-12-28T11:35:48.647Z,95.12
2017-12-28T11:36:48.914Z,94.84
2017-12-28T11:37:48.935Z,95.03
2017-12-28T11:38:48.990Z,94.84
2017-12-28T11:39:48.697Z,94.84
2017-12-28T11:40:48.961Z,94.18
2017-12-28T11:41:48.977Z,94.74
2017-12-28T11:42:48.983Z,94.46
2017-12-28T11:43:48.996Z,94.27
2017-12-28T11:44:49.010Z,94.84
2017-12-28T11:45:49.022Z,94.84
2017-12-28T11:46:49.032Z,94.84
2017-12-28T11:47:49.047Z,94.65
2017-12-28T11:48:49.069Z,94.27
2017-12-28T11:49:49.075Z,94.46
2017-12-28T11:50:48.833Z,94.84
2017-12-28T11:51:48.844Z,94.56
2017-12-28T11:52:48.881Z,94.37
2017-12-28T11:53:49.123Z,93.7
2017-12-28T11:54:48.881Z,93.99
2017-12-28T11:55:49.144Z,94.08
2017-12-28T11:56:48.957Z,94.6
2017-12-28T11:57:48.917Z,94.08
2017-12-28T11:58:48.930Z,93.99
2017-12-28T11:59:49.201Z,94.08
2017-12-28T12:00:48.953Z,93.99
2017-12-28T12:01:48.964Z,94.74
2017-12-28T12:02:48.978Z,94.56
2017-12-28T12:03:48.994Z,94.27
2017-12-28T12:04:49.002Z,93.99
2017-12-28T12:05:49.266Z,94.08
2017-12-28T12:06:49.284Z,93.7
2017-12-28T12:07:49.300Z,93.99
2017-12-28T12:08:49.302Z,93.89
2017-12-28T12:09:49.320Z,94.56
2017-12-28T12:10:49.334Z,93.8
2017-12-28T12:11:49.500Z,94.18
2017-12-28T12:12:49.102Z,93.7
2017-12-28T12:13:49.367Z,94.74
2017-12-28T12:14:49.376Z,94.84
2017-12-28T12:15:49.388Z,94.65
2017-12-28T12:16:49.405Z,94.27
2017-12-28T12:17:49.416Z,94.37
2017-12-28T12:18:49.428Z,94.74
2017-12-28T12:19:49.441Z,94.08
2017-12-28T12:20:49.456Z,94.08
2017-12-28T12:21:49.497Z,93.89
2017-12-28T12:22:49.470Z,93.89
2017-12-28T12:23:49.235Z,93.99
2017-12-28T12:24:49.503Z,94.18
2017-12-28T12:25:49.554Z,93.89
2017-12-28T12:26:49.323Z,93.99
2017-12-28T12:27:49.539Z,93.89
2017-12-28T12:28:49.317Z,94.08
2017-12-28T12:29:49.310Z,93.99
2017-12-28T12:30:49.323Z,93.99
2017-12-28T12:31:49.334Z,94.08
2017-12-28T12:32:49.599Z,94.37
2017-12-28T12:33:49.610Z,93.7
2017-12-28T12:34:49.629Z,94.27
2017-12-28T12:35:49.638Z,94.27
2017-12-28T12:36:49.649Z,93.89
2017-12-28T12:37:49.409Z,94.08
2017-12-28T12:38:49.675Z,93.7
2017-12-28T12:39:49.687Z,93.89
2017-12-28T12:40:49.705Z,93.89
2017-12-28T12:41:49.760Z,94.27
2017-12-28T12:42:49.470Z,94.08
2017-12-28T12:43:49.499Z,94.37
2017-12-28T12:44:49.749Z,93.89
2017-12-28T12:45:49.507Z,93.99
2017-12-28T12:46:49.522Z,94.27
2017-12-28T12:47:49.790Z,93.7
2017-12-28T12:48:49.800Z,94.27
2017-12-28T12:49:49.810Z,94.23
2017-12-28T12:50:49.570Z,93.56
2017-12-28T12:51:49.582Z,93.23
2017-12-28T12:52:49.596Z,93.8
2017-12-28T12:53:49.609Z,93.7
2017-12-28T12:54:49.870Z,93.42
2017-12-28T12:55:49.885Z,94.08